createdAt,value
2019-01-15T00:01:31.352Z,14.47
2019-01-15T00:04:01.057Z,13.13
2019-01-15T00:06:30.349Z,13.53
2019-01-15T00:09:00.202Z,15.37
2019-01-15T00:11:29.504Z,13.53
2019-01-15T00:13:59.411Z,16.53
2019-01-15T00:16:28.767Z,13.40
2019-01-15T00:18:58.157Z,15.10
2019-01-15T00:21:27.890Z,18.27
2019-01-15T00:23:57.193Z,13.97
2019-01-15T00:26:26.586Z,16.03
2019-01-15T00:28:56.290Z,18.40
2019-01-15T00:31:25.568Z,17.83
2019-01-15T00:33:54.870Z,16.03
2019-01-15T00:36:24.467Z,16.47
2019-01-15T00:38:53.846Z,16.37
2019-01-15T00:41:23.178Z,18.37
2019-01-15T00:43:55.526Z,20.93
2019-01-15T00:46:25.768Z,19.30
2019-01-15T00:48:55.618Z,18.27
2019-01-15T00:51:24.979Z,18.63
2019-01-15T00:53:54.914Z,18.67
2019-01-15T00:56:24.567Z,18.80
2019-01-15T00:58:53.841Z,17.90
2019-01-15T01:01:23.536Z,15.27
2019-01-15T01:03:54.942Z,20.33
2019-01-15T01:06:24.673Z,16.60
2019-01-15T01:08:53.938Z,15.53
2019-01-15T01:11:23.688Z,16.60
2019-01-15T01:13:55.822Z,17.13
2019-01-15T01:16:25.870Z,13.70
2019-01-15T01:18:55.226Z,13.73
2019-01-15T01:21:24.940Z,15.57
2019-01-15T01:23:58.288Z,15.73
2019-01-15T01:26:27.798Z,16.23
2019-01-15T01:28:57.091Z,17.53
2019-01-15T01:31:27.886Z,15.40
2019-01-15T01:33:58.459Z,20.23
2019-01-15T01:36:27.833Z,16.70
2019-01-15T01:38:57.148Z,17.47
2019-01-15T01:41:28.510Z,18.07
2019-01-15T01:43:57.996Z,17.80
2019-01-15T01:46:27.596Z,18.90
2019-01-15T01:48:57.845Z,17.23
2019-01-15T01:51:29.838Z,16.23
2019-01-15T01:53:59.553Z,19.40
2019-01-15T01:56:28.842Z,17.57
2019-01-15T01:59:00.261Z,16.13
2019-01-15T02:01:31.489Z,18.33
2019-01-15T02:04:00.885Z,17.20
2019-01-15T02:06:30.237Z,17.00
2019-01-15T02:08:59.619Z,18.80
2019-01-15T02:11:28.905Z,19.20
2019-01-15T02:14:00.494Z,20.37
2019-01-15T02:16:32.937Z,19.57
2019-01-15T02:19:02.801Z,19.83
2019-01-15T02:21:32.411Z,18.37
2019-01-15T02:24:02.522Z,20.47
2019-01-15T02:26:32.093Z,17.80
2019-01-15T02:29:01.378Z,19.30
2019-01-15T02:31:34.645Z,22.60
2019-01-15T02:34:04.008Z,19.73
2019-01-15T02:36:33.284Z,17.13
2019-01-15T02:39:05.041Z,17.17
2019-01-15T02:41:34.349Z,17.50
2019-01-15T02:44:03.768Z,16.83
2019-01-15T02:46:36.747Z,19.87
2019-01-15T02:49:06.613Z,20.03
2019-01-15T02:51:39.778Z,16.37
2019-01-15T02:54:09.085Z,20.30
2019-01-15T02:56:38.465Z,21.67
2019-01-15T02:59:07.831Z,20.13
2019-01-15T03:01:37.223Z,20.83
2019-01-15T03:04:06.804Z,18.53
2019-01-15T03:06:36.177Z,22.30
2019-01-15T03:09:08.910Z,21.83
2019-01-15T03:11:38.367Z,21.40
2019-01-15T03:14:09.787Z,24.23
2019-01-15T03:16:39.462Z,22.97
2019-01-15T03:19:09.171Z,17.83
2019-01-15T03:21:38.457Z,20.10
2019-01-15T03:24:07.848Z,20.03
2019-01-15T03:26:37.122Z,21.00
2019-01-15T03:29:06.518Z,24.47
2019-01-15T03:31:37.895Z,20.40
2019-01-15T03:34:09.672Z,24.17
2019-01-15T03:36:41.993Z,25.13
2019-01-15T03:39:11.969Z,26.97
2019-01-15T03:41:41.688Z,23.17
2019-01-15T03:44:16.659Z,23.40
2019-01-15T03:46:46.802Z,24.30
2019-01-15T03:49:16.214Z,22.80
2019-01-15T03:51:49.230Z,24.37
2019-01-15T03:54:19.036Z,25.37
2019-01-15T03:56:48.320Z,23.43
2019-01-15T03:59:17.694Z,26.27
2019-01-15T04:01:47.378Z,23.87
2019-01-15T04:04:17.046Z,23.77
2019-01-15T04:06:46.436Z,28.43
2019-01-15T04:09:16.307Z,22.33
2019-01-15T04:11:45.659Z,23.17
2019-01-15T04:14:15.123Z,22.13
2019-01-15T04:16:44.774Z,23.40
2019-01-15T04:19:14.238Z,29.93
2019-01-15T04:21:43.840Z,26.63
2019-01-15T04:24:13.758Z,22.40
2019-01-15T04:26:44.974Z,25.87
2019-01-15T04:29:14.332Z,25.07
2019-01-15T04:31:43.686Z,27.17
2019-01-15T04:34:16.799Z,24.13
2019-01-15T04:36:46.417Z,26.70
2019-01-15T04:39:17.858Z,29.67
2019-01-15T04:41:47.158Z,24.60
2019-01-15T04:44:16.514Z,25.80
2019-01-15T04:46:45.885Z,27.70
2019-01-15T04:49:15.247Z,27.40
2019-01-15T04:51:46.078Z,21.73
2019-01-15T04:54:15.498Z,24.27
2019-01-15T04:56:44.940Z,26.73
2019-01-15T04:59:14.323Z,25.60
2019-01-15T05:01:43.666Z,24.43
2019-01-15T05:04:13.023Z,25.03
2019-01-15T05:06:42.395Z,28.40
2019-01-15T05:09:13.664Z,24.87
2019-01-15T05:11:43.089Z,25.63
2019-01-15T05:14:12.764Z,24.33
2019-01-15T05:16:42.081Z,26.50
2019-01-15T05:19:11.443Z,26.40
2019-01-15T05:21:41.090Z,26.83
2019-01-15T05:24:10.493Z,22.87
2019-01-15T05:26:40.088Z,26.73
2019-01-15T05:29:09.442Z,25.77
2019-01-15T05:31:38.847Z,27.63
2019-01-15T05:34:08.121Z,25.43
2019-01-15T05:36:37.396Z,32.07
2019-01-15T05:39:08.884Z,25.47
2019-01-15T05:41:38.167Z,31.50
2019-01-15T05:44:07.425Z,29.37
2019-01-15T05:46:36.912Z,33.80
2019-01-15T05:49:06.494Z,26.50
2019-01-15T05:51:40.550Z,27.13
2019-01-15T05:54:10.668Z,32.57
2019-01-15T05:56:39.947Z,29.57
2019-01-15T05:59:12.139Z,30.23
2019-01-15T06:01:41.859Z,30.40
2019-01-15T06:04:11.673Z,28.23
2019-01-15T06:06:41.049Z,28.40
2019-01-15T06:09:11.713Z,33.33
2019-01-15T06:11:41.061Z,35.23
2019-01-15T06:14:10.375Z,30.13
2019-01-15T06:16:40.068Z,31.97
2019-01-15T06:19:09.341Z,30.53
2019-01-15T06:21:39.079Z,32.60
2019-01-15T06:24:08.367Z,31.77
2019-01-15T06:26:37.637Z,34.27
2019-01-15T06:29:07.591Z,30.43
2019-01-15T06:31:36.861Z,32.83
2019-01-15T06:34:06.553Z,32.93
2019-01-15T06:36:36.215Z,29.23
2019-01-15T06:39:08.831Z,33.20
2019-01-15T06:41:38.667Z,31.13
2019-01-15T06:44:08.049Z,33.00
2019-01-15T06:46:37.363Z,28.03
2019-01-15T06:49:07.084Z,31.70
2019-01-15T06:51:36.480Z,30.17
2019-01-15T06:54:05.758Z,34.17
2019-01-15T06:56:35.045Z,29.93
2019-01-15T06:59:04.698Z,33.23
2019-01-15T07:01:34.272Z,34.13
2019-01-15T07:04:03.727Z,28.53
2019-01-15T07:06:33.135Z,32.57
2019-01-15T07:09:02.490Z,28.40
2019-01-15T07:11:31.772Z,31.90
2019-01-15T07:14:01.480Z,31.53
2019-01-15T07:16:31.124Z,31.20
2019-01-15T07:19:00.786Z,34.97
2019-01-15T07:21:30.402Z,34.37
2019-01-15T07:24:01.823Z,30.83
2019-01-15T07:26:31.094Z,30.57
2019-01-15T07:29:03.976Z,29.43
2019-01-15T07:31:33.614Z,32.87
2019-01-15T07:34:02.883Z,35.70
2019-01-15T07:36:32.265Z,29.20
2019-01-15T07:39:01.539Z,30.47
2019-01-15T07:41:30.734Z,25.77
2019-01-15T07:44:04.304Z,27.07
2019-01-15T07:46:30.984Z,26.77
2019-01-15T07:49:00.770Z,32.07
2019-01-15T07:51:36.321Z,25.57
2019-01-15T07:54:09.070Z,29.43
2019-01-15T07:56:38.440Z,27.10
2019-01-15T07:59:08.123Z,30.33
2019-01-15T08:01:37.605Z,25.37
2019-01-15T08:04:06.887Z,24.33
2019-01-15T08:06:36.658Z,24.80
2019-01-15T08:09:09.690Z,24.63
2019-01-15T08:11:41.392Z,21.60
2019-01-15T08:14:12.115Z,24.47
2019-01-15T08:16:42.061Z,26.47
2019-01-15T08:19:11.873Z,22.37
2019-01-15T08:21:41.623Z,25.07
2019-01-15T08:24:10.874Z,21.47
2019-01-15T08:26:40.265Z,22.57
2019-01-15T08:29:09.533Z,23.03
2019-01-15T08:31:38.721Z,23.60
2019-01-15T08:34:11.353Z,21.77
2019-01-15T08:36:39.641Z,19.77
2019-01-15T08:39:09.549Z,21.67
2019-01-15T08:41:38.861Z,21.17
2019-01-15T08:44:11.479Z,19.87
2019-01-15T08:46:40.969Z,17.03
2019-01-15T08:49:10.865Z,21.53
2019-01-15T08:51:40.953Z,19.60
2019-01-15T08:54:10.596Z,15.13
2019-01-15T08:56:42.476Z,19.90
2019-01-15T08:59:11.893Z,19.23
2019-01-15T09:01:43.497Z,18.37
2019-01-15T09:04:12.896Z,16.47
2019-01-15T09:06:42.256Z,17.83
2019-01-15T09:09:11.650Z,13.23
2019-01-15T09:11:41.310Z,15.23
2019-01-15T09:14:10.678Z,13.83
2019-01-15T09:16:40.339Z,15.47
2019-01-15T09:19:09.958Z,13.30
2019-01-15T09:21:39.319Z,12.77
2019-01-15T09:24:08.965Z,17.27
2019-01-15T09:26:38.360Z,13.43
2019-01-15T09:29:07.658Z,13.00
2019-01-15T09:31:38.038Z,10.77
2019-01-15T09:34:07.357Z,15.50
2019-01-15T09:36:36.847Z,14.20
2019-01-15T09:39:08.939Z,10.00
2019-01-15T09:41:38.910Z,12.23
2019-01-15T09:44:08.274Z,12.17
2019-01-15T09:46:37.479Z,8.33
2019-01-15T09:49:06.890Z,14.33
2019-01-15T09:51:37.927Z,10.07
2019-01-15T09:54:07.618Z,15.40
2019-01-15T09:56:37.256Z,13.00
2019-01-15T09:59:06.617Z,7.93
2019-01-15T10:01:36.241Z,9.73
2019-01-15T10:04:05.550Z,9.70
2019-01-15T10:06:35.181Z,8.43
2019-01-15T10:09:08.112Z,7.37
2019-01-15T10:11:39.161Z,9.23
2019-01-15T10:14:27.634Z,7.20
2019-01-15T10:16:57.003Z,7.77
2019-01-15T10:19:26.402Z,8.10
2019-01-15T10:21:55.740Z,6.93
2019-01-15T10:24:27.175Z,9.33
2019-01-15T10:26:57.641Z,7.07
2019-01-15T10:29:27.322Z,6.63
2019-01-15T10:32:41.498Z,10.70
2019-01-15T10:35:26.025Z,6.70
2019-01-15T10:37:55.686Z,11.17
2019-01-15T10:40:24.954Z,8.13
2019-01-15T10:42:54.957Z,5.60
2019-01-15T10:45:24.335Z,7.07
2019-01-15T10:47:53.704Z,6.47
2019-01-15T10:50:23.327Z,6.10
2019-01-15T10:52:52.686Z,7.53
2019-01-15T10:55:21.893Z,5.17
2019-01-15T10:57:51.171Z,6.77
2019-01-15T11:00:21.126Z,7.23
2019-01-15T11:02:51.070Z,8.87
2019-01-15T11:05:21.028Z,11.57
2019-01-15T11:07:50.394Z,5.67
2019-01-15T11:10:22.516Z,8.30
2019-01-15T11:12:52.343Z,7.20
2019-01-15T11:15:21.738Z,8.37
2019-01-15T11:17:51.004Z,9.87
2019-01-15T11:20:20.894Z,5.50
2019-01-15T11:22:50.300Z,7.77
2019-01-15T11:25:19.905Z,7.73
2019-01-15T11:27:53.430Z,9.87
2019-01-15T11:30:22.816Z,10.80
2019-01-15T11:32:52.182Z,6.57
2019-01-15T11:35:21.573Z,9.83
2019-01-15T11:37:52.270Z,7.20
2019-01-15T11:40:21.806Z,9.73
2019-01-15T11:42:51.177Z,7.87
2019-01-15T11:45:20.727Z,11.37
2019-01-15T11:47:51.939Z,7.27
2019-01-15T11:50:22.160Z,10.60
2019-01-15T11:52:51.637Z,12.90
2019-01-15T11:55:21.724Z,9.87
2019-01-15T11:57:54.313Z,10.67
2019-01-15T12:00:51.203Z,8.20
2019-01-15T12:03:38.507Z,6.87
2019-01-15T12:06:25.563Z,6.93
2019-01-15T12:09:20.090Z,12.10
2019-01-15T12:12:17.714Z,11.83
2019-01-15T12:15:10.999Z,10.73
2019-01-15T12:17:58.296Z,7.47
2019-01-15T12:20:45.908Z,6.87
2019-01-15T12:23:52.979Z,10.97
2019-01-15T12:26:44.383Z,8.60
2019-01-15T12:29:31.474Z,9.23
2019-01-15T12:32:19.838Z,8.93
2019-01-15T12:35:08.178Z,6.50
2019-01-15T12:38:09.073Z,6.93
2019-01-15T12:41:00.311Z,6.83
2019-01-15T12:43:47.295Z,8.37
2019-01-15T12:46:38.879Z,10.47
2019-01-15T12:49:35.689Z,8.70
2019-01-15T12:52:15.283Z,8.83
2019-01-15T12:55:04.301Z,11.30
2019-01-15T12:58:01.460Z,9.90
2019-01-15T13:00:52.591Z,11.67
2019-01-15T13:03:56.635Z,9.77
2019-01-15T13:06:41.672Z,8.30
2019-01-15T13:09:39.953Z,13.73
2019-01-15T13:12:17.430Z,6.13
2019-01-15T13:15:12.278Z,8.83
2019-01-15T13:18:14.183Z,9.40
2019-01-15T13:21:05.024Z,7.90
2019-01-15T13:24:03.493Z,9.13
2019-01-15T13:26:42.505Z,8.57
2019-01-15T13:29:43.028Z,10.97
2019-01-15T13:32:40.425Z,8.33
2019-01-15T13:35:35.387Z,10.00
2019-01-15T13:38:14.874Z,11.57
2019-01-15T13:41:18.546Z,13.13
2019-01-15T13:44:05.905Z,12.93
2019-01-15T13:46:43.880Z,12.13
2019-01-15T13:49:41.271Z,8.40
2019-01-15T13:52:34.930Z,12.73
2019-01-15T13:55:43.222Z,7.83
2019-01-15T13:58:31.545Z,13.10
2019-01-15T14:01:22.890Z,8.33
2019-01-15T14:04:06.922Z,9.93
2019-01-15T14:07:04.601Z,9.17
2019-01-15T14:09:57.153Z,9.00
2019-01-15T14:12:42.762Z,9.17
2019-01-15T14:15:34.257Z,8.80
2019-01-15T14:18:28.441Z,10.13
2019-01-15T14:21:19.762Z,11.53
2019-01-15T14:24:10.774Z,7.17
2019-01-15T14:26:59.021Z,6.60
2019-01-15T14:29:55.558Z,9.73
2019-01-15T14:32:32.440Z,7.53
2019-01-15T14:35:22.452Z,8.50
2019-01-15T14:37:59.938Z,6.10
2019-01-15T14:40:46.784Z,9.70
2019-01-15T14:43:40.426Z,6.70
2019-01-15T14:46:38.740Z,11.37
2019-01-15T14:49:17.461Z,8.73
2019-01-15T14:52:12.760Z,12.07
2019-01-15T14:54:59.998Z,61.07
2019-01-15T14:58:03.756Z,46.67
2019-01-15T15:00:57.960Z,15.67
2019-01-15T15:03:45.942Z,7.93
2019-01-15T15:06:31.094Z,14.13
2019-01-15T15:09:25.368Z,6.27
2019-01-15T15:12:11.656Z,8.90
2019-01-15T15:14:59.072Z,6.87
2019-01-15T15:17:52.237Z,7.53
2019-01-15T15:20:53.268Z,8.07
2019-01-15T15:23:47.378Z,8.47
2019-01-15T15:26:34.374Z,6.30
2019-01-15T15:29:14.956Z,7.50
2019-01-15T15:32:07.177Z,6.27
2019-01-15T15:34:51.346Z,5.80
2019-01-15T15:37:35.227Z,6.17
2019-01-15T15:40:27.051Z,7.63
2019-01-15T15:43:14.196Z,6.37
2019-01-15T15:45:58.482Z,6.93
2019-01-15T15:48:45.377Z,5.93
2019-01-15T15:51:36.490Z,7.27
2019-01-15T15:54:37.581Z,7.93
2019-01-15T15:57:34.012Z,6.77
2019-01-15T16:00:34.730Z,7.70
2019-01-15T16:03:41.249Z,9.37
2019-01-15T16:06:28.606Z,7.17
2019-01-15T16:09:09.296Z,11.40
2019-01-15T16:12:03.777Z,7.80
2019-01-15T16:14:51.077Z,9.97
2019-01-15T16:17:48.725Z,10.47
2019-01-15T16:20:29.955Z,6.73
2019-01-15T16:23:24.369Z,6.60
2019-01-15T16:26:18.309Z,7.13
2019-01-15T16:29:13.159Z,7.23
2019-01-15T16:31:54.192Z,6.90
2019-01-15T16:34:49.413Z,6.97
2019-01-15T16:37:40.454Z,7.73
2019-01-15T16:40:25.289Z,7.47
2019-01-15T16:43:12.501Z,6.83
2019-01-15T16:46:01.156Z,7.77
2019-01-15T16:48:46.743Z,7.90
2019-01-15T16:51:33.900Z,4.87
2019-01-15T16:54:25.602Z,6.37
2019-01-15T16:57:16.310Z,7.07
2019-01-15T17:00:03.758Z,6.20
2019-01-15T17:02:50.635Z,9.70
2019-01-15T17:05:37.710Z,7.57
2019-01-15T17:08:41.425Z,7.40
2019-01-15T17:11:33.496Z,5.23
2019-01-15T17:14:24.971Z,5.47
2019-01-15T17:17:18.283Z,6.23
2019-01-15T17:19:54.680Z,8.87
2019-01-15T17:22:46.449Z,8.60
2019-01-15T17:25:30.066Z,5.63
2019-01-15T17:28:06.530Z,9.57
2019-01-15T17:30:52.210Z,6.80
2019-01-15T17:33:39.775Z,5.40
2019-01-15T17:36:31.068Z,5.00
2019-01-15T17:39:21.070Z,7.37
2019-01-15T17:42:02.220Z,7.27
2019-01-15T17:44:39.050Z,6.17
2019-01-15T17:47:33.207Z,4.80
2019-01-15T17:50:20.494Z,5.63
2019-01-15T17:53:07.400Z,7.00
2019-01-15T17:55:53.200Z,5.73
2019-01-15T17:58:41.542Z,9.70
2019-01-15T18:01:36.110Z,9.27
2019-01-15T18:04:39.851Z,7.17
2019-01-15T18:07:25.955Z,5.30
2019-01-15T18:10:21.886Z,6.13
2019-01-15T18:13:09.358Z,6.13
2019-01-15T18:15:56.729Z,5.00
2019-01-15T18:18:45.366Z,5.73
2019-01-15T18:21:41.134Z,7.97
2019-01-15T18:24:41.751Z,6.90
2019-01-15T18:27:29.426Z,6.03
2019-01-15T18:30:19.530Z,7.83
2019-01-15T18:33:08.880Z,11.67
2019-01-15T18:36:03.404Z,10.30
2019-01-15T18:39:03.905Z,7.00
2019-01-15T18:41:55.254Z,6.03
2019-01-15T18:44:39.100Z,6.47
2019-01-15T18:47:33.349Z,8.37
2019-01-15T18:50:20.990Z,8.63
2019-01-15T18:53:14.783Z,12.63
2019-01-15T18:56:06.013Z,7.67
2019-01-15T18:59:14.115Z,6.83
2019-01-15T19:02:05.544Z,6.60
2019-01-15T19:04:52.721Z,10.77
2019-01-15T19:07:39.695Z,6.27
2019-01-15T19:10:34.442Z,6.80
2019-01-15T19:13:20.839Z,9.03
2019-01-15T19:16:18.845Z,8.63
2019-01-15T19:19:10.321Z,7.53
2019-01-15T19:21:59.651Z,8.57
2019-01-15T19:24:51.153Z,8.43
2019-01-15T19:27:48.555Z,7.70
2019-01-15T19:30:35.579Z,7.47
2019-01-15T19:33:42.304Z,7.70
2019-01-15T19:36:39.519Z,9.10
2019-01-15T19:39:16.797Z,9.40
2019-01-15T19:42:05.418Z,8.37
2019-01-15T19:45:06.184Z,9.70
2019-01-15T19:47:55.330Z,8.83
2019-01-15T19:50:42.709Z,22.90
2019-01-15T19:53:29.905Z,9.47
2019-01-15T19:56:21.250Z,9.37
2019-01-15T19:59:23.576Z,9.87
2019-01-15T20:02:12.586Z,9.37
2019-01-15T20:05:03.640Z,9.53
2019-01-15T20:07:58.035Z,9.53
2019-01-15T20:10:43.209Z,9.80
2019-01-15T20:13:46.824Z,10.17
2019-01-15T20:16:41.455Z,10.10
2019-01-15T20:19:41.633Z,10.53
2019-01-15T20:22:40.320Z,10.30
2019-01-15T20:25:34.458Z,11.67
2019-01-15T20:28:25.891Z,10.50
2019-01-15T20:31:19.124Z,10.10
2019-01-15T20:34:06.156Z,11.40
2019-01-15T20:36:53.220Z,12.40
2019-01-15T20:39:39.121Z,10.87
2019-01-15T20:42:39.722Z,10.87
2019-01-15T20:45:27.836Z,11.57
2019-01-15T20:48:15.751Z,11.00
2019-01-15T20:51:19.222Z,10.90
2019-01-15T20:54:06.333Z,11.40
2019-01-15T20:57:13.230Z,10.90
2019-01-15T20:59:56.440Z,9.77
2019-01-15T21:02:50.887Z,10.53
2019-01-15T21:05:57.240Z,11.07
2019-01-15T21:08:58.863Z,10.40
2019-01-15T21:11:50.353Z,10.17
2019-01-15T21:14:48.116Z,12.70
2019-01-15T21:17:39.537Z,9.80
2019-01-15T21:20:27.778Z,10.73
2019-01-15T21:23:15.621Z,11.40
2019-01-15T21:26:11.045Z,13.73
2019-01-15T21:28:56.235Z,11.97
2019-01-15T21:31:41.735Z,13.80
2019-01-15T21:34:36.149Z,14.13
2019-01-15T21:37:33.139Z,14.87
2019-01-15T21:40:20.289Z,14.70
2019-01-15T21:43:04.337Z,15.07
2019-01-15T21:45:58.981Z,16.17
2019-01-15T21:48:56.256Z,16.50
2019-01-15T21:51:47.447Z,17.03
2019-01-15T21:54:32.256Z,17.30
2019-01-15T21:57:30.991Z,17.13
2019-01-15T22:00:19.683Z,18.77
2019-01-15T22:03:17.141Z,20.03
2019-01-15T22:06:17.580Z,21.50
2019-01-15T22:09:18.406Z,19.53
2019-01-15T22:12:15.673Z,19.13
2019-01-15T22:15:03.390Z,21.33
2019-01-15T22:17:48.222Z,21.03
2019-01-15T22:20:35.431Z,21.63
2019-01-15T22:23:35.333Z,17.77
2019-01-15T22:26:20.915Z,19.57
2019-01-15T22:29:15.208Z,20.03
2019-01-15T22:32:09.677Z,19.67
2019-01-15T22:35:03.760Z,21.63
2019-01-15T22:37:54.867Z,15.83
2019-01-15T22:40:35.346Z,17.97
2019-01-15T22:43:30.234Z,17.40
2019-01-15T22:46:27.821Z,16.57
2019-01-15T22:49:31.785Z,19.23
2019-01-15T22:52:23.005Z,17.50
2019-01-15T22:55:20.215Z,20.23
2019-01-15T22:58:03.800Z,17.83
2019-01-15T23:00:55.846Z,19.47
2019-01-15T23:03:59.456Z,17.40
2019-01-15T23:06:46.439Z,17.57
2019-01-15T23:09:40.107Z,19.00
2019-01-15T23:12:47.148Z,14.80
2019-01-15T23:15:34.496Z,17.53
2019-01-15T23:18:20.462Z,17.50
2019-01-15T23:21:18.211Z,17.70
2019-01-15T23:24:03.502Z,17.47
2019-01-15T23:26:50.392Z,16.93
2019-01-15T23:29:37.476Z,21.40
2019-01-15T23:32:23.317Z,17.03
2019-01-15T23:35:03.893Z,16.17
2019-01-15T23:37:56.300Z,19.23
2019-01-15T23:40:50.716Z,15.40
2019-01-15T23:43:37.712Z,13.10
2019-01-15T23:46:26.010Z,13.43
2019-01-15T23:49:16.712Z,15.37
2019-01-15T23:52:14.082Z,17.40
2019-01-15T23:55:02.338Z,13.03
2019-01-15T23:57:46.744Z,15.13
